Time;durP1;ratioP1;P1;durP2;ratioP2;P2;SDS_P1;SDS_P2;PMS_P1;PMS_P2;Temp;Humidity;BMP_temperature;BMP_pressure;BME280_temperature;BME280_humidity;BME280_pressure;Samples;Min_cycle;Max_cycle;Signal;HPM_P1;HPM_P2
2022/04/07 00:01:21;;;;;;;;;2.33;0.67;;;;;13.79;60.60;99708.44;4995961;28;45618;-85
2022/04/07 00:03:46;;;;;;;;;1.00;0.00;;;;;13.64;60.84;99675.63;4994858;28;45373;-85
2022/04/07 00:06:12;;;;;;;;;0.00;0.00;;;;;13.80;60.50;99686.06;4995157;28;45455;-85
2022/04/07 00:08:39;;;;;;;;;0.33;0.33;;;;;13.68;60.34;99666.41;4995034;28;45539;-85
2022/04/07 00:11:04;;;;;;;;;0.00;0.00;;;;;13.81;60.40;99679.72;4995407;28;45244;-85
2022/04/07 00:13:30;;;;;;;;;0.67;0.67;;;;;13.48;60.15;99625.88;4994963;28;45299;-85
2022/04/07 00:15:58;;;;;;;;;0.00;0.00;;;;;13.59;60.01;99641.16;4994396;28;45482;-86
2022/04/07 00:18:24;;;;;;;;;2.00;0.67;;;;;13.82;60.41;99678.78;4995397;28;45475;-85
2022/04/07 00:20:52;;;;;;;;;0.00;0.00;;;;;13.82;60.08;99681.44;4995268;27;45576;-85
2022/04/07 00:23:17;;;;;;;;;1.00;1.00;;;;;13.68;60.07;99655.69;4994962;28;46086;-85
2022/04/07 00:25:43;;;;;;;;;0.00;0.00;;;;;13.85;60.03;99667.81;4994925;28;45373;-85
2022/04/07 00:28:08;;;;;;;;;0.00;0.00;;;;;13.81;59.83;99658.28;4994794;28;45415;-85
2022/04/07 00:30:36;;;;;;;;;0.00;0.00;;;;;13.71;59.88;99634.03;4995267;27;45221;-85
2022/04/07 00:33:04;;;;;;;;;1.00;1.00;;;;;13.65;59.70;99624.63;4992993;28;45617;-85
2022/04/07 00:35:30;;;;;;;;;0.00;0.00;;;;;13.89;59.53;99658.59;4994226;28;45395;-85
2022/04/07 00:37:55;;;;;;;;;0.00;0.00;;;;;13.75;59.38;99623.97;4994389;28;45388;-85
2022/04/07 00:40:21;;;;;;;;;1.00;1.00;;;;;13.64;59.40;99600.66;4995306;28;45412;-85
2022/04/07 00:42:52;;;;;;;;;0.00;0.00;;;;;13.93;59.28;99644.00;4993105;28;47370;-85
2022/04/07 00:45:20;;;;;;;;;0.67;0.67;;;;;13.92;59.40;99639.59;4992960;28;45455;-85
2022/04/07 00:47:46;;;;;;;;;1.00;1.00;;;;;13.91;59.03;99636.06;4994635;28;45350;-85
2022/04/07 00:50:14;;;;;;;;;0.33;0.33;;;;;13.81;59.16;99624.31;4994045;28;45325;-86
2022/04/07 00:52:46;;;;;;;;;1.00;0.00;;;;;13.62;59.31;99592.72;4993526;28;46413;-85
2022/04/07 00:55:14;;;;;;;;;0.00;0.00;;;;;13.86;59.31;99610.59;4993866;27;45238;-85
2022/04/07 00:57:41;;;;;;;;;0.00;0.00;;;;;13.66;59.18;99562.06;4994374;28;45436;-85
2022/04/07 01:00:08;;;;;;;;;0.00;0.00;;;;;13.90;59.60;99591.47;4995954;28;45579;-85
2022/04/07 01:02:34;;;;;;;;;1.00;1.00;;;;;13.89;59.19;99589.78;4997207;28;45514;-85
2022/04/07 01:05:00;;;;;;;;;1.00;1.00;;;;;13.90;59.30;99586.13;4996798;28;45437;-85
2022/04/07 01:07:25;;;;;;;;;0.67;0.67;;;;;13.73;59.02;99547.25;4997597;28;45369;-85
2022/04/07 01:09:52;;;;;;;;;1.00;1.00;;;;;13.61;59.34;99516.06;4997971;28;45295;-85
2022/04/07 01:12:17;;;;;;;;;0.00;0.00;;;;;13.87;59.27;99562.25;4997210;28;46227;-85
2022/04/07 01:14:59;;;;;;;;;0.00;0.00;;;;;13.85;59.40;99552.66;4997416;28;45171;-85
2022/04/07 01:17:24;;;;;;;;;1.33;1.00;;;;;13.88;59.24;99552.41;4997293;28;45511;-85
2022/04/07 01:19:49;;;;;;;;;0.00;0.00;;;;;13.85;59.21;99552.66;4997447;28;45365;-86
2022/04/07 01:22:15;;;;;;;;;0.33;0.33;;;;;13.69;59.62;99524.34;4997240;28;45892;-85
2022/04/07 01:24:40;;;;;;;;;2.00;1.00;;;;;13.86;61.24;99548.97;4997264;28;45340;-85
2022/04/07 01:27:06;;;;;;;;;0.00;0.00;;;;;13.82;62.55;99555.56;4997441;28;45423;-85
2022/04/07 01:29:31;;;;;;;;;1.33;0.33;;;;;13.69;63.37;99528.84;4997205;28;45349;-85
2022/04/07 01:32:05;;;;;;;;;1.00;1.00;;;;;13.42;62.82;99497.88;4997036;28;46188;-85
2022/04/07 01:34:30;;;;;;;;;0.00;0.00;;;;;13.62;62.87;99527.63;4997175;28;45393;-85
2022/04/07 01:36:55;;;;;;;;;1.00;1.00;;;;;13.44;63.52;99497.75;4996674;28;45900;-85
2022/04/07 01:39:26;;;;;;;;;2.00;1.00;;;;;13.64;62.58;99531.03;4997385;28;45231;-85
2022/04/07 01:41:53;;;;;;;;;1.00;1.00;;;;;13.67;62.48;99523.63;4996642;28;45462;-85
2022/04/07 01:44:20;;;;;;;;;1.67;0.00;;;;;13.33;62.61;99457.56;4995337;28;45759;-85
2022/04/07 01:46:47;;;;;;;;;0.67;0.33;;;;;13.71;61.97;99524.25;4996416;28;45376;-84
2022/04/07 01:49:12;;;;;;;;;3.33;1.00;;;;;13.73;62.01;99523.16;4996896;28;45525;-85
2022/04/07 01:51:38;;;;;;;;;2.67;0.67;;;;;13.44;62.06;99477.19;4995339;28;45953;-85
2022/04/07 01:54:11;;;;;;;;;0.33;0.33;;;;;13.14;62.04;99416.13;4996487;28;45576;-85
2022/04/07 01:56:39;;;;;;;;;0.33;0.33;;;;;13.59;62.09;99512.63;4996655;27;45439;-86
2022/04/07 01:59:07;;;;;;;;;1.00;1.00;;;;;13.44;62.04;99471.00;4997177;28;45270;-86
2022/04/07 02:01:32;;;;;;;;;1.00;1.00;;;;;13.62;62.92;99516.91;4996765;28;46016;-85
2022/04/07 02:03:58;;;;;;;;;0.67;0.00;;;;;13.63;62.98;99527.50;4996051;28;45427;-85
2022/04/07 02:06:25;;;;;;;;;3.67;2.67;;;;;13.34;63.35;99464.63;4996165;28;45312;-85
2022/04/07 02:08:50;;;;;;;;;2.00;1.67;;;;;13.59;63.32;99506.44;4996478;28;45332;-85
2022/04/07 02:11:16;;;;;;;;;3.00;1.00;;;;;13.34;63.61;99469.97;4995806;28;45518;-85
2022/04/07 02:13:42;;;;;;;;;1.00;1.00;;;;;13.30;63.89;99478.22;4996248;28;45234;-85
2022/04/07 02:16:08;;;;;;;;;1.00;0.00;;;;;13.57;64.18;99497.66;4996650;28;45483;-85
2022/04/07 02:18:35;;;;;;;;;2.00;0.00;;;;;13.56;63.57;99507.53;4996265;28;45397;-85
2022/04/07 02:21:01;;;;;;;;;1.00;1.00;;;;;13.37;64.06;99472.41;4995898;28;46123;-85
2022/04/07 02:23:27;;;;;;;;;2.67;1.00;;;;;13.52;64.00;99487.31;4996203;28;45602;-85
2022/04/07 02:25:52;;;;;;;;;3.00;1.67;;;;;13.31;63.90;99446.97;4996017;28;45532;-85
2022/04/07 02:28:18;;;;;;;;;1.33;1.00;;;;;13.34;64.71;99443.19;4996542;28;45499;-85
2022/04/07 02:30:45;;;;;;;;;0.00;0.00;;;;;13.54;66.04;99474.66;4996445;28;45403;-84
2022/04/07 02:33:11;;;;;;;;;0.67;0.67;;;;;13.58;66.44;99456.53;4996515;28;45480;-85
2022/04/07 02:35:37;;;;;;;;;1.00;0.67;;;;;13.34;66.57;99414.63;4995599;28;45418;-85
2022/04/07 02:38:02;;;;;;;;;2.67;1.00;;;;;13.57;67.22;99458.34;5011492;28;45501;-85
2022/04/07 02:40:28;;;;;;;;;0.33;0.00;;;;;13.59;67.61;99436.84;4995393;28;45367;-85
2022/04/07 02:42:53;;;;;;;;;1.67;0.33;;;;;13.51;67.53;99424.91;4996270;28;45483;-85
2022/04/07 02:45:18;;;;;;;;;2.00;1.00;;;;;13.56;67.95;99429.88;4996327;28;45291;-85
2022/04/07 02:47:44;;;;;;;;;3.00;1.67;;;;;13.38;68.48;99388.47;4996503;28;45179;-85
2022/04/07 02:50:09;;;;;;;;;0.00;0.00;;;;;13.50;67.96;99395.56;4996052;28;45203;-85
2022/04/07 02:52:34;;;;;;;;;1.00;1.00;;;;;13.47;68.27;99398.47;4995968;28;45302;-85
2022/04/07 02:55:00;;;;;;;;;1.67;0.00;;;;;13.49;68.16;99393.88;4996721;28;45361;-85
2022/04/07 02:57:30;;;;;;;;;0.67;0.00;;;;;13.54;67.68;99394.34;4996639;28;45848;-85
2022/04/07 02:59:58;;;;;;;;;0.00;0.00;;;;;13.37;68.22;99363.56;5010948;28;47205;-85
2022/04/07 03:02:24;;;;;;;;;0.33;0.33;;;;;13.27;68.59;99351.81;4995774;28;45400;-85
2022/04/07 03:04:49;;;;;;;;;0.00;0.00;;;;;13.54;68.26;99380.97;4995835;27;45375;-85
2022/04/07 03:07:14;;;;;;;;;0.67;0.67;;;;;13.52;68.68;99382.91;4996116;27;45402;-85
2022/04/07 03:09:40;;;;;;;;;0.33;0.33;;;;;13.50;68.16;99380.34;4995055;27;46253;-85
2022/04/07 03:12:06;;;;;;;;;0.33;0.00;;;;;13.54;68.50;99369.41;4995908;28;45371;-85
2022/04/07 03:14:31;;;;;;;;;2.00;1.00;;;;;13.35;68.38;99337.88;4995718;27;45542;-85
2022/04/07 03:16:58;;;;;;;;;2.00;1.00;;;;;13.47;68.34;99344.94;4995633;28;45398;-85
2022/04/07 03:19:24;;;;;;;;;1.00;1.00;;;;;13.33;68.81;99313.06;4995214;28;45538;-85
2022/04/07 03:21:49;;;;;;;;;1.00;1.00;;;;;13.54;68.57;99334.63;4994905;28;45379;-85
2022/04/07 03:24:20;;;;;;;;;3.00;0.00;;;;;13.55;68.32;99333.63;4995385;28;45356;-85
2022/04/07 03:26:46;;;;;;;;;1.33;1.33;;;;;13.22;68.39;99269.22;4993338;28;54366;-85
2022/04/07 03:29:11;;;;;;;;;3.00;1.00;;;;;13.59;68.47;99317.22;4995475;28;46136;-85
2022/04/07 03:31:36;;;;;;;;;0.00;0.00;;;;;13.61;68.43;99301.03;4994994;27;45340;-85
2022/04/07 03:34:02;;;;;;;;;0.00;0.00;;;;;13.05;68.60;99214.38;4995795;27;45687;-85
2022/04/07 03:36:28;;;;;;;;;0.00;0.00;;;;;13.46;68.96;99270.97;4994528;28;45268;-86
2022/04/07 03:38:53;;;;;;;;;0.00;0.00;;;;;13.55;69.28;99277.41;4994805;28;45339;-85
2022/04/07 03:41:18;;;;;;;;;0.67;0.00;;;;;13.27;68.93;99229.63;4994446;28;45465;-85
2022/04/07 03:43:44;;;;;;;;;3.00;0.00;;;;;13.60;69.78;99269.88;4993940;28;45744;-86
2022/04/07 03:46:10;;;;;;;;;0.00;0.00;;;;;13.48;70.20;99245.78;4994819;28;45423;-85
2022/04/07 03:48:36;;;;;;;;;2.33;1.00;;;;;13.60;70.07;99243.97;4994473;28;45555;-85
2022/04/07 03:51:01;;;;;;;;;0.00;0.00;;;;;13.36;70.78;99195.06;4995332;28;45533;-85
2022/04/07 03:53:27;;;;;;;;;3.00;1.67;;;;;13.44;70.45;99198.00;4995283;27;45512;-85
2022/04/07 03:55:52;;;;;;;;;2.00;1.00;;;;;13.61;70.50;99226.91;4995388;28;45547;-86
2022/04/07 03:58:17;;;;;;;;;1.00;1.00;;;;;13.64;69.98;99218.63;4995235;28;45480;-85
2022/04/07 04:00:43;;;;;;;;;2.00;0.00;;;;;13.40;70.21;99165.25;5009789;28;45491;-85
2022/04/07 04:03:08;;;;;;;;;0.00;0.00;;;;;13.34;70.27;99155.03;4994710;28;45581;-85
2022/04/07 04:05:33;;;;;;;;;1.00;1.00;;;;;13.61;70.12;99200.16;4994261;28;45618;-86
2022/04/07 04:08:02;;;;;;;;;1.00;1.00;;;;;13.47;70.21;99179.00;4995251;28;45403;-85
2022/04/07 04:10:27;;;;;;;;;3.00;1.00;;;;;13.64;70.56;99188.34;4994957;27;45479;-85
2022/04/07 04:12:53;;;;;;;;;0.00;0.00;;;;;12.74;70.51;99018.09;4994613;28;45743;-85
2022/04/07 04:15:18;;;;;;;;;1.00;0.00;;;;;13.22;70.27;99099.81;4995550;27;45320;-85
2022/04/07 04:17:44;;;;;;;;;0.00;0.00;;;;;13.46;70.96;99139.81;4994853;28;46209;-85
2022/04/07 04:20:10;;;;;;;;;0.33;0.33;;;;;13.66;71.03;99183.72;4994943;28;45444;-85
2022/04/07 04:22:36;;;;;;;;;0.67;0.00;;;;;13.46;71.13;99137.13;4993969;28;45395;-85
2022/04/07 04:25:01;;;;;;;;;0.00;0.00;;;;;13.67;70.75;99167.53;4994925;28;45843;-85
2022/04/07 04:27:27;;;;;;;;;0.50;0.50;;;;;13.61;70.00;99143.94;4994766;28;46270;-85
2022/04/07 04:29:52;;;;;;;;;1.00;1.00;;;;;13.60;71.29;99155.63;4983017;28;45298;-84
2022/04/07 04:32:17;;;;;;;;;1.00;1.00;;;;;13.52;70.66;99148.19;4990605;28;45449;-85
2022/04/07 04:34:43;;;;;;;;;2.00;2.00;;;;;13.69;71.20;99170.91;4985125;28;45475;-85
2022/04/07 04:37:08;;;;;;;;;1.00;1.00;;;;;13.47;70.95;99130.81;5012454;28;47370;-85
2022/04/07 04:39:33;;;;;;;;;1.67;1.67;;;;;13.74;71.20;99165.16;4997612;27;45491;-85
2022/04/07 04:41:59;;;;;;;;;1.00;1.00;;;;;13.55;71.27;99135.53;4997270;28;51424;-85
2022/04/07 04:44:24;;;;;;;;;0.33;0.33;;;;;13.73;71.69;99164.31;4998099;28;45261;-85
2022/04/07 04:46:49;;;;;;;;;0.67;0.67;;;;;13.71;71.85;99158.25;4996456;28;48952;-85
2022/04/07 04:49:15;;;;;;;;;1.33;0.33;;;;;13.56;71.80;99126.56;4997017;28;45501;-86
2022/04/07 04:51:40;;;;;;;;;2.00;1.00;;;;;13.46;71.10;99103.22;4996889;28;45364;-86
2022/04/07 04:54:05;;;;;;;;;0.00;0.00;;;;;13.63;71.86;99144.66;4996413;27;45517;-86
2022/04/07 04:56:31;;;;;;;;;2.33;1.33;;;;;13.54;71.51;99117.78;4996863;28;45424;-85
2022/04/07 04:58:57;;;;;;;;;1.00;1.00;;;;;13.66;72.23;99141.72;4996022;28;57243;-86
2022/04/07 05:01:26;;;;;;;;;2.00;2.00;;;;;13.66;71.66;99131.00;4996368;28;45510;-86
2022/04/07 05:03:51;;;;;;;;;1.00;1.00;;;;;13.71;71.92;99122.59;4995807;27;45475;-86
2022/04/07 05:06:16;;;;;;;;;2.00;1.00;;;;;13.73;71.03;99132.19;4996386;27;51053;-86
2022/04/07 05:08:41;;;;;;;;;1.00;1.00;;;;;13.55;71.21;99106.94;4994531;27;53933;-86
2022/04/07 05:11:07;;;;;;;;;0.00;0.00;;;;;13.76;71.07;99116.84;5007729;28;45386;-86
2022/04/07 05:13:32;;;;;;;;;0.67;0.67;;;;;13.72;70.83;99103.72;4996359;28;45546;-86
2022/04/07 05:15:58;;;;;;;;;1.00;1.00;;;;;13.72;70.48;99109.09;4995249;28;46089;-86
2022/04/07 05:18:23;;;;;;;;;0.00;0.00;;;;;13.78;70.21;99102.38;4996398;27;45487;-86
2022/04/07 05:20:48;;;;;;;;;3.33;1.67;;;;;13.85;69.50;99110.75;4996047;27;45242;-86
2022/04/07 05:23:14;;;;;;;;;4.00;1.67;;;;;13.10;70.21;98974.13;5001266;27;45392;-92
2022/04/07 05:25:39;;;;;;;;;2.00;0.33;;;;;13.93;70.42;99102.94;5012022;28;47221;-87
2022/04/07 05:28:05;;;;;;;;;0.00;0.00;;;;;13.91;69.50;99078.94;4996590;27;45557;-89
2022/04/07 05:30:30;;;;;;;;;0.67;0.00;;;;;13.82;69.49;99070.84;4997176;28;45330;-88
2022/04/07 05:32:55;;;;;;;;;0.67;0.00;;;;;13.89;69.41;99072.00;4996995;28;45565;-88
2022/04/07 05:35:21;;;;;;;;;4.67;1.00;;;;;13.89;69.78;99055.94;4996375;28;46032;-87
2022/04/07 05:37:46;;;;;;;;;0.67;0.33;;;;;13.66;69.36;99028.44;4996701;28;45519;-87
2022/04/07 05:40:13;;;;;;;;;2.67;1.00;;;;;14.01;69.94;99067.44;4996541;28;45377;-89
2022/04/07 05:42:39;;;;;;;;;2.00;1.00;;;;;13.91;69.65;99051.31;4991855;28;45470;-91
2022/04/07 05:45:06;;;;;;;;;2.00;0.00;;;;;12.93;69.05;98891.78;4995901;27;46545;-93
2022/04/07 05:47:38;;;;;;;;;1.33;1.00;;;;;13.48;68.95;98969.25;5001530;27;45461;-93
2022/04/07 05:50:04;;;;;;;;;1.00;1.00;;;;;13.30;68.46;98944.91;4998534;27;45472;-93
2022/04/07 05:52:29;;;;;;;;;0.00;0.00;;;;;13.38;69.17;98946.94;5001035;28;45602;-94
2022/04/07 05:54:54;;;;;;;;;2.00;0.00;;;;;13.55;69.02;98974.94;4994990;28;54988;-90
2022/04/07 05:57:22;;;;;;;;;0.00;0.00;;;;;13.18;68.39;98940.53;4995694;27;45427;-90
2022/04/07 05:59:47;;;;;;;;;0.00;0.00;;;;;14.06;68.27;99057.19;4997191;27;45373;-89
2022/04/07 06:02:12;;;;;;;;;1.33;1.33;;;;;13.43;67.85;98953.56;4995916;28;45695;-90
2022/04/07 06:04:39;;;;;;;;;1.00;1.00;;;;;13.24;68.24;98916.78;4998929;28;50192;-88
2022/04/07 06:07:04;;;;;;;;;1.00;1.00;;;;;13.78;67.75;98997.94;5003837;28;45794;-88
2022/04/07 06:09:29;;;;;;;;;0.00;0.00;;;;;13.84;67.35;99001.94;4994764;28;45432;-88
2022/04/07 06:11:55;;;;;;;;;0.00;0.00;;;;;13.75;66.99;98976.78;4996388;28;45360;-88
2022/04/07 06:14:20;;;;;;;;;1.00;0.00;;;;;14.13;66.97;99039.59;4998618;28;49413;-88
2022/04/07 06:16:45;;;;;;;;;0.00;0.00;;;;;13.87;66.43;98991.78;4997790;28;51498;-87
2022/04/07 06:19:10;;;;;;;;;0.00;0.00;;;;;13.69;67.18;98961.22;5005717;27;45334;-86
2022/04/07 06:21:36;;;;;;;;;0.67;0.00;;;;;14.06;67.01;99014.31;4995300;28;45318;-88
2022/04/07 06:24:01;;;;;;;;;2.00;0.00;;;;;13.77;66.79;99006.13;4995982;27;45853;-88
2022/04/07 06:26:27;;;;;;;;;1.00;1.00;;;;;14.07;67.06;99014.19;5002897;27;45568;-87
2022/04/07 06:28:52;;;;;;;;;0.00;0.00;;;;;13.96;67.07;98998.19;4995783;28;45534;-88
2022/04/07 06:31:18;;;;;;;;;0.00;0.00;;;;;13.97;67.53;99009.75;4999701;28;45404;-88
2022/04/07 06:33:43;;;;;;;;;2.00;1.00;;;;;13.50;68.07;98925.31;5000732;27;48606;-87
2022/04/07 06:36:09;;;;;;;;;1.67;1.00;;;;;13.33;68.48;98917.88;5002623;27;45416;-87
2022/04/07 06:38:34;;;;;;;;;0.33;0.00;;;;;14.14;68.68;99017.16;4994806;28;45456;-90
2022/04/07 06:41:00;;;;;;;;;1.00;1.00;;;;;13.64;68.85;98929.50;5000791;27;45422;-88
2022/04/07 06:43:26;;;;;;;;;1.00;1.00;;;;;14.09;68.76;99032.81;5001603;28;47311;-86
2022/04/07 06:45:52;;;;;;;;;3.00;3.00;;;;;14.14;69.09;99014.50;5015450;27;45497;-90
2022/04/07 06:48:18;;;;;;;;;0.33;0.00;;;;;14.16;68.88;99020.56;5002826;27;45531;-87
2022/04/07 06:50:44;;;;;;;;;2.00;1.00;;;;;14.05;69.12;98993.88;5015917;28;45154;-89
2022/04/07 06:53:11;;;;;;;;;1.00;1.00;;;;;13.66;68.34;98918.66;5006546;28;45491;-90
2022/04/07 06:55:37;;;;;;;;;2.00;2.00;;;;;14.24;68.46;98998.50;4995348;28;45795;-90
2022/04/07 06:58:06;;;;;;;;;8.33;6.33;;;;;14.26;68.82;99000.06;4987316;28;45438;-88
2022/04/07 07:00:33;;;;;;;;;0.00;0.00;;;;;13.23;68.48;98845.53;4996836;28;45415;-93
2022/04/07 07:03:01;;;;;;;;;0.00;0.00;;;;;13.74;68.70;98924.19;4993929;28;47209;-89
2022/04/07 07:05:28;;;;;;;;;1.00;1.00;;;;;14.28;68.15;99003.47;5000283;28;45367;-93
2022/04/07 07:07:54;;;;;;;;;1.00;1.00;;;;;13.90;68.25;98964.72;5011655;27;45520;-92
2022/04/07 07:10:29;;;;;;;;;0.00;0.00;;;;;13.72;68.08;98904.75;4994926;27;45350;-92
2022/04/07 07:12:55;;;;;;;;;1.67;0.33;;;;;13.51;68.14;98869.97;5008143;28;47901;-92
2022/04/07 07:15:21;;;;;;;;;0.67;0.67;;;;;14.09;68.38;98958.66;4994743;27;45636;-90
2022/04/07 07:17:47;;;;;;;;;0.00;0.00;;;;;14.19;68.78;98981.94;5010328;27;45515;-91
2022/04/07 07:20:13;;;;;;;;;0.67;0.00;;;;;13.85;68.34;98907.22;4996086;28;45259;-94
2022/04/07 07:22:40;;;;;;;;;3.67;3.67;;;;;14.09;69.03;98965.81;4993805;27;48231;-89
2022/04/07 07:25:06;;;;;;;;;0.00;0.00;;;;;14.27;68.25;98974.94;4994082;28;45353;-91
2022/04/07 07:27:36;;;;;;;;;1.00;1.00;;;;;13.82;68.44;98899.44;5009379;28;45451;-91
2022/04/07 07:30:02;;;;;;;;;1.00;1.00;;;;;13.97;68.07;98935.59;4994015;27;45611;-89
2022/04/07 07:32:28;;;;;;;;;1.00;1.00;;;;;13.97;68.78;98911.50;4995591;27;45441;-90
2022/04/07 07:34:53;;;;;;;;;4.00;3.00;;;;;13.65;68.31;98869.63;5004516;28;45449;-93
2022/04/07 07:37:18;;;;;;;;;7.00;6.00;;;;;13.89;68.52;98881.88;5006122;28;45346;-95
2022/04/07 07:39:44;;;;;;;;;0.00;0.00;;;;;14.32;68.59;98953.94;4995054;28;45501;-92
2022/04/07 07:42:09;;;;;;;;;0.00;0.00;;;;;14.46;68.86;98976.84;4992915;28;46516;-91
2022/04/07 07:44:35;;;;;;;;;0.00;0.00;;;;;14.57;68.70;98994.72;4994925;28;45507;-86
2022/04/07 07:47:00;;;;;;;;;0.00;0.00;;;;;14.29;68.47;98916.69;4995179;27;45448;-91
2022/04/07 07:49:25;;;;;;;;;2.00;1.67;;;;;14.09;68.63;98866.69;4993647;28;45586;-89
2022/04/07 07:51:51;;;;;;;;;1.00;1.00;;;;;14.06;67.89;98851.75;4993172;28;47067;-90
2022/04/07 07:54:17;;;;;;;;;0.67;0.67;;;;;14.41;68.23;98881.75;4995058;28;45426;-91
2022/04/07 07:56:43;;;;;;;;;0.00;0.00;;;;;14.83;67.84;98956.69;4994855;28;45449;-90
2022/04/07 07:59:08;;;;;;;;;10.00;7.00;;;;;14.42;68.27;98899.53;4994963;28;45397;-91
2022/04/07 08:01:33;;;;;;;;;22.67;19.00;;;;;14.75;68.85;98935.91;4994388;28;54740;-89
2022/04/07 08:03:59;;;;;;;;;0.00;0.00;;;;;14.44;68.12;98887.69;4994396;28;52665;-93
2022/04/07 08:06:24;;;;;;;;;0.00;0.00;;;;;14.71;68.21;98937.19;4993969;28;45570;-92
2022/04/07 08:08:49;;;;;;;;;0.00;0.00;;;;;14.58;68.09;98902.56;4993884;28;45259;-92
2022/04/07 08:11:14;;;;;;;;;0.00;0.00;;;;;14.52;67.42;98887.84;4993738;27;47878;-93
2022/04/07 08:13:45;;;;;;;;;0.00;0.00;;;;;14.82;67.52;98907.56;4994100;28;45691;-91
2022/04/07 08:16:10;;;;;;;;;1.00;1.00;;;;;14.52;68.73;98844.13;4995160;28;45209;-91
2022/04/07 08:18:36;;;;;;;;;0.00;0.00;;;;;14.71;68.25;98870.13;4993630;27;45368;-90
2022/04/07 08:21:01;;;;;;;;;0.00;0.00;;;;;14.97;68.63;98908.81;4993145;28;50025;-90
2022/04/07 08:23:26;;;;;;;;;0.00;0.00;;;;;14.94;67.62;98894.88;4994884;27;45172;-90
2022/04/07 08:25:52;;;;;;;;;0.67;0.67;;;;;15.15;68.04;98943.03;4994839;28;45444;-91
2022/04/07 08:28:17;;;;;;;;;0.00;0.00;;;;;14.62;67.45;98815.50;4983233;28;46311;-91
2022/04/07 08:30:42;;;;;;;;;0.00;0.00;;;;;14.96;67.25;98869.59;4992759;28;62172;-90
2022/04/07 08:33:08;;;;;;;;;0.00;0.00;;;;;15.26;66.46;98889.19;5001736;28;50697;-91
2022/04/07 08:35:33;;;;;;;;;0.00;0.00;;;;;15.69;66.13;98920.09;4993703;28;45666;-90
2022/04/07 08:37:58;;;;;;;;;0.00;0.00;;;;;15.16;65.36;98832.84;4993616;28;45482;-89
2022/04/07 08:40:24;;;;;;;;;0.00;0.00;;;;;15.47;65.19;98883.66;4993074;28;47017;-91
2022/04/07 08:42:50;;;;;;;;;0.00;0.00;;;;;15.39;64.82;98854.00;4993124;28;45545;-91
2022/04/07 08:45:16;;;;;;;;;0.00;0.00;;;;;15.67;64.58;98884.47;4994321;28;45320;-90
2022/04/07 08:47:41;;;;;;;;;0.33;0.00;;;;;15.92;63.75;98901.81;4994802;28;45500;-91
2022/04/07 08:50:07;;;;;;;;;0.00;0.00;;;;;15.83;63.64;98883.88;4993904;28;46474;-89
2022/04/07 08:52:34;;;;;;;;;0.00;0.00;;;;;15.96;64.43;98895.13;4992619;28;45306;-90
2022/04/07 08:54:59;;;;;;;;;0.00;0.00;;;;;16.21;64.02;98912.44;4993882;28;45662;-89
2022/04/07 08:57:26;;;;;;;;;0.00;0.00;;;;;16.27;64.22;98951.31;4994527;28;45500;-91
2022/04/07 08:59:52;;;;;;;;;0.00;0.00;;;;;15.84;63.45;98869.44;4992395;28;47612;-90
2022/04/07 09:02:17;;;;;;;;;0.33;0.33;;;;;15.86;63.03;98845.97;4992232;28;45839;-92
2022/04/07 09:04:42;;;;;;;;;1.00;0.00;;;;;16.14;63.21;98894.38;4992517;28;45443;-90
2022/04/07 09:07:12;;;;;;;;;0.00;0.00;;;;;15.99;62.12;98884.13;4992820;28;45407;-91
2022/04/07 09:09:37;;;;;;;;;0.67;0.00;;;;;16.07;62.77;98872.63;4992563;28;47975;-90
2022/04/07 09:12:03;;;;;;;;;0.00;0.00;;;;;16.00;62.59;98856.22;4992567;28;45711;-88
2022/04/07 09:14:37;;;;;;;;;0.00;0.00;;;;;16.19;62.85;98895.59;4993881;28;45385;-90
2022/04/07 09:17:03;;;;;;;;;10.00;8.33;;;;;16.28;62.73;98901.09;4992896;28;45489;-87
2022/04/07 09:19:35;;;;;;;;;0.00;0.00;;;;;16.56;62.55;98943.13;4993755;28;46568;-87
2022/04/07 09:22:05;;;;;;;;;0.00;0.00;;;;;16.40;61.64;98890.00;4996086;27;45502;-89
2022/04/07 09:24:34;;;;;;;;;0.00;0.00;;;;;16.67;60.98;98936.72;4997040;28;45522;-90
2022/04/07 09:27:03;;;;;;;;;0.00;0.00;;;;;16.43;61.51;98897.75;5013384;28;45359;-90
2022/04/07 09:29:39;;;;;;;;;0.00;0.00;;;;;16.29;61.10;98866.00;4996447;27;46664;-91
2022/04/07 09:32:15;;;;;;;;;0.33;0.00;;;;;16.30;60.82;98873.06;4998906;27;45438;-90
2022/04/07 09:34:40;;;;;;;;;0.00;0.00;;;;;15.88;61.55;98814.44;5010117;27;45349;-91
2022/04/07 09:37:07;;;;;;;;;0.00;0.00;;;;;16.69;61.25;98953.53;4998984;28;45499;-90
2022/04/07 09:39:34;;;;;;;;;0.00;0.00;;;;;16.11;61.09;98848.97;5012537;28;48071;-90
2022/04/07 09:42:20;;;;;;;;;0.00;0.00;;;;;16.67;60.98;98945.63;4997531;27;45341;-90
2022/04/07 09:44:51;;;;;;;;;0.00;0.00;;;;;16.33;61.20;98896.97;4996744;27;45472;-91
2022/04/07 09:47:16;;;;;;;;;1.00;0.00;;;;;16.62;61.45;98953.31;4995983;27;45471;-90
2022/04/07 09:49:42;;;;;;;;;0.00;0.00;;;;;16.18;61.81;98879.66;4996070;28;45356;-90
2022/04/07 09:52:11;;;;;;;;;0.00;0.00;;;;;16.33;62.62;98918.47;4996307;27;45397;-90
2022/04/07 09:54:43;;;;;;;;;0.00;0.00;;;;;16.55;64.36;98962.97;4995550;28;45459;-90
2022/04/07 09:57:12;;;;;;;;;0.00;0.00;;;;;16.53;65.04;98970.34;4995230;27;45394;-90
2022/04/07 09:59:40;;;;;;;;;0.00;0.00;;;;;15.99;64.54;98891.31;5005355;27;47527;-92
2022/04/07 10:02:06;;;;;;;;;0.00;0.00;;;;;16.15;66.21;98906.81;4995457;28;45665;-87
2022/04/07 10:04:34;;;;;;;;;0.00;0.00;;;;;16.56;67.38;99023.81;4996064;27;45603;-89
2022/04/07 10:07:02;;;;;;;;;1.67;0.00;;;;;16.34;72.09;99022.34;4997278;28;45334;-86
2022/04/07 10:09:27;;;;;;;;;1.00;0.00;;;;;16.11;70.82;99019.16;4994684;28;47309;-85
2022/04/07 10:11:54;;;;;;;;;2.00;0.00;;;;;15.36;69.99;98924.09;5010832;27;45220;-85
2022/04/07 10:14:23;;;;;;;;;2.00;1.00;;;;;15.89;69.50;99027.53;4995499;28;45519;-84
2022/04/07 10:16:48;;;;;;;;;0.00;0.00;;;;;15.76;69.86;99004.50;4995835;28;45899;-85
2022/04/07 10:19:16;;;;;;;;;0.00;0.00;;;;;16.16;69.79;99067.09;4995350;27;46398;-85
2022/04/07 10:21:55;;;;;;;;;1.00;0.00;;;;;16.24;70.81;99069.91;4993830;28;45509;-84
2022/04/07 10:24:35;;;;;;;;;0.00;0.00;;;;;16.37;71.26;99078.50;4996126;27;45379;-82
2022/04/07 10:27:04;;;;;;;;;0.00;0.00;;;;;15.76;69.87;98982.16;5001956;27;45472;-82
2022/04/07 10:29:30;;;;;;;;;0.00;0.00;;;;;16.45;69.94;99102.81;4999337;28;45324;-83
2022/04/07 10:32:19;;;;;;;;;1.33;0.00;;;;;16.49;68.67;99113.31;4995726;28;45496;-83
2022/04/07 10:34:55;;;;;;;;;0.00;0.00;;;;;16.44;68.16;99106.53;4994039;28;45424;-82
2022/04/07 10:37:40;;;;;;;;;0.00;0.00;;;;;16.41;67.66;99106.81;4995848;28;45661;-83
2022/04/07 10:40:31;;;;;;;;;1.00;1.00;;;;;16.31;68.69;99097.06;4995259;28;45460;-83
2022/04/07 10:43:10;;;;;;;;;0.00;0.00;;;;;16.25;67.86;99083.22;4995033;27;45487;-82
2022/04/07 10:45:38;;;;;;;;;2.67;1.67;;;;;16.48;68.35;99133.94;4993902;28;45415;-84
2022/04/07 10:48:18;;;;;;;;;0.00;0.00;;;;;16.44;67.27;99124.50;4991215;27;45437;-86
2022/04/07 10:50:51;;;;;;;;;0.00;0.00;;;;;16.39;66.98;99121.41;4995159;27;45526;-88
2022/04/07 10:53:22;;;;;;;;;0.00;0.00;;;;;16.53;66.62;99133.53;5014509;27;45370;-88
2022/04/07 10:56:08;;;;;;;;;0.00;0.00;;;;;16.61;65.53;99144.41;4987471;28;45468;-88
2022/04/07 10:58:45;;;;;;;;;0.00;0.00;;;;;16.32;65.09;99088.88;5004517;28;45410;-88
2022/04/07 11:01:15;;;;;;;;;0.00;0.00;;;;;16.46;63.78;99098.31;4994707;27;47785;-88
2022/04/07 11:04:01;;;;;;;;;0.00;0.00;;;;;16.29;62.80;99064.94;4997445;28;45317;-88
2022/04/07 11:06:26;;;;;;;;;0.00;0.00;;;;;16.16;62.61;99078.69;5000274;28;45251;-88
2022/04/07 11:09:11;;;;;;;;;2.00;0.00;;;;;16.55;62.67;99132.41;4995085;28;45397;-88
2022/04/07 11:12:10;;;;;;;;;0.00;0.00;;;;;16.68;62.37;99150.91;4995711;28;45620;-88
2022/04/07 11:14:35;;;;;;;;;0.00;0.00;;;;;16.66;62.26;99145.66;4999962;27;45219;-87
2022/04/07 11:17:05;;;;;;;;;0.00;0.00;;;;;16.70;61.10;99153.47;4997487;27;45328;-87
2022/04/07 11:20:05;;;;;;;;;0.00;0.00;;;;;16.77;61.40;99162.66;4998004;27;45366;-85
2022/04/07 11:23:01;;;;;;;;;0.00;0.00;;;;;16.98;60.98;99173.25;4991558;28;46140;-86
2022/04/07 11:25:43;;;;;;;;;0.00;0.00;;;;;16.55;59.88;99097.44;4990708;28;45444;-89
2022/04/07 11:28:13;;;;;;;;;1.00;0.33;;;;;17.24;58.78;99173.44;4995364;28;45313;-88
2022/04/07 11:30:49;;;;;;;;;0.00;0.00;;;;;17.15;58.44;99134.78;4995929;28;45503;-87
2022/04/07 11:33:39;;;;;;;;;0.00;0.00;;;;;17.43;56.17;99178.72;4996186;28;45690;-85
2022/04/07 11:36:04;;;;;;;;;0.00;0.00;;;;;17.39;54.67;99200.72;4990513;28;45348;-85